Hawksview Airstrip

GB-0764 · Anglia, Wielka Brytania

Historia METAR GB-0764 · Hawksview Airstrip

Poniżej widzisz METAR-y z ostatnich kilku dni. Wybierz rok, aby przeglądać starsze METAR-y, począwszy od roku 2007.

23 czerwca 2024

Czas Kod Pogoda Temp. Widoczność Sufit Wiatr METAR/SPECI
01:20
V
13 °C 10 km+ - 180° 180° 3 kt METAR EGCC 230020Z AUTO 18003KT 9999 NCD 13/10 Q1016
00:50
V
13 °C 10 km+ - 160° 160° 3 kt METAR EGCC 222350Z AUTO 16003KT 9999 NCD 13/10 Q1016
00:20
V
13 °C 10 km+ - 160° 160° 3 kt METAR EGCC 222320Z AUTO 16003KT 9999 NCD 13/10 Q1016

22 czerwca 2024

Czas Kod Pogoda Temp. Widoczność Sufit Wiatr METAR/SPECI
23:50
V
12 °C 10 km+ - 190° 190° 4 kt METAR EGCC 222250Z AUTO 19004KT 9999 NCD 12/09 Q1016 NOSIG
23:20
V
12 °C 10 km+ - Var Var 2 kt METAR EGCC 222220Z AUTO VRB02KT 9999 NCD 12/10 Q1016
22:50
V
14 °C 10 km+ - 200° 200° 3 kt METAR EGCC 222150Z AUTO 20003KT 150V230 9999 NCD 14/09 Q1016
22:20
V
15 °C 10 km+ - 280° 280° 2 kt METAR EGCC 222120Z AUTO 28002KT 9999 NCD 15/10 Q1016 NOSIG
21:50
V
16 °C 10 km+ - 300° 300° 5 kt METAR EGCC 222050Z AUTO 30005KT 9999 NCD 16/10 Q1015 NOSIG
21:20
V
16 °C 10 km+ - 300° 300° 5 kt METAR EGCC 222020Z AUTO 30005KT 9999 NCD 16/10 Q1015
20:50
V
17 °C 10 km+ - 300° 300° 7 kt METAR EGCC 221950Z AUTO 30007KT 9999 NCD 17/10 Q1014 NOSIG
20:20
V
17 °C 10 km+ - 290° 290° 7 kt METAR EGCC 221920Z AUTO 29007KT 9999 NCD 17/10 Q1014
19:50
V
18 °C 10 km+ - 300° 300° 7 kt METAR EGCC 221850Z AUTO 30007KT 9999 NCD 18/10 Q1014 NOSIG
19:20
V
18 °C 10 km+ - 300° 300° 7 kt METAR EGCC 221820Z AUTO 30007KT 9999 NCD 18/10 Q1014
18:50
V
19 °C 10 km+ - 300° 300° 9 kt METAR EGCC 221750Z 30009KT 9999 FEW039 19/10 Q1014 NOSIG
18:20
V
19 °C 10 km+ - 290° 290° 7 kt METAR EGCC 221720Z 29007KT 270V330 9999 FEW038 19/10 Q1013
17:50
V
19 °C 10 km+ - 270° 270° 8 kt METAR EGCC 221650Z 27008KT 9999 FEW038 19/10 Q1013 NOSIG
17:20
V
19 °C 10 km+ 4.000 ft 270° 270° 8 kt METAR EGCC 221620Z AUTO 27008KT 9999 BKN040 19/10 Q1013
16:50
V
19 °C 10 km+ - 260° 260° 7 kt METAR EGCC 221550Z 26007KT 9999 FEW039 19/09 Q1013
16:20
V
18 °C 10 km+ - 280° 280° 7 kt METAR EGCC 221520Z 28007KT 9999 SCT037 18/10 Q1013
15:50
V
19 °C 10 km+ - 260° 260° 10 kt METAR EGCC 221450Z 26010KT 9999 SCT036 19/10 Q1013 NOSIG
15:20
V
19 °C 10 km+ - 270° 270° 8 kt METAR EGCC 221420Z 27008KT 220V320 9999 SCT037 19/10 Q1013
14:50
V
19 °C 10 km+ - 270° 270° 10 kt METAR EGCC 221350Z AUTO 27010KT 9999 NCD 19/10 Q1013 NOSIG
14:20
V
19 °C 10 km+ 3.900 ft 270° 270° 9 kt METAR EGCC 221320Z AUTO 27009KT 250V310 9999 BKN039 19/09 Q1013
13:50
V
19 °C 10 km+ - 270° 270° 9 kt METAR EGCC 221250Z AUTO 27009KT 9999 SCT042 19/09 Q1013
13:20
V
19 °C 10 km+ - 260° 260° 10 kt METAR EGCC 221220Z AUTO 26010KT 240V300 9999 FEW046 19/08 Q1013
12:50
V
18 °C 10 km+ - 290° 290° 10 kt METAR EGCC 221150Z AUTO 29010KT 9999 FEW041 18/08 Q1012 NOSIG
12:20
V
18 °C 10 km+ - 270° 270° 11 kt METAR EGCC 221120Z AUTO 27011KT 9999 SCT033 SCT039 18/09 Q1012
11:50
V
18 °C 10 km+ - 270° 270° 12 kt METAR EGCC 221050Z 27012KT 9999 SCT029 18/10 Q1012 NOSIG
11:20
V
17 °C 10 km+ - 280° 280° 8 kt METAR EGCC 221020Z 28008KT 240V320 9999 SCT026 17/11 Q1012
10:50
M
17 °C 10 km+ 2.800 ft 280° 280° 9 kt METAR EGCC 220950Z AUTO 28009KT 250V310 9999 SCT022 BKN028 BKN048 17/11 Q1012 NOSIG
10:20
M
16 °C 10 km+ 2.000 ft 290° 290° 7 kt METAR EGCC 220920Z AUTO 29007KT 9999 SCT015 BKN020 BKN043 16/11 Q1011
09:50
M
15 °C 10 km+ 1.200 ft 270° 270° 8 kt METAR EGCC 220850Z AUTO 27008KT 9999 BKN012 BKN017 15/12 Q1011
09:20
M
15 °C 10 km+ 1.200 ft 260° 260° 8 kt METAR EGCC 220820Z 26008KT 9999 -RA BKN012 15/12 Q1011
08:50
M
15 °C 10 km+ 2.100 ft 290° 290° 8 kt METAR EGCC 220750Z 29008KT 9999 SCT014 BKN021 15/12 Q1011 NOSIG
08:20
M
15 °C 10 km+ 1.200 ft 280° 280° 7 kt METAR EGCC 220720Z 28007KT 9999 BKN012 15/12 Q1011
07:50
M
14 °C 10 km+ 1.400 ft 270° 270° 5 kt METAR EGCC 220650Z 27005KT 9999 SCT009 BKN014 14/12 Q1011
07:20
I
14 °C 10 km+ 700 ft 270° 270° 6 kt METAR EGCC 220620Z AUTO 27006KT 240V300 9999 BKN007 14/12 Q1010
06:50
I
14 °C 10 km+ 800 ft 260° 260° 5 kt METAR EGCC 220550Z 26005KT 9999 BKN008 14/13 Q1010
06:20
I
13 °C 10 km+ 600 ft 240° 240° 5 kt METAR EGCC 220520Z AUTO 24005KT 9999 BKN006 OVC013 13/13 Q1010
05:50
M
13 °C 10 km+ 1.100 ft 250° 250° 5 kt METAR EGCC 220450Z AUTO 25005KT 9999 SCT008 BKN011 OVC019 13/13 Q1009 TEMPO SCT011
05:20
L
13 °C 10 km+ 400 ft 230° 230° 7 kt METAR EGCC 220420Z AUTO 23007KT 190V260 9999 BKN004 OVC009 13/12 Q1009
04:50
I
13 °C 8 km 900 ft 210° 210° 4 kt METAR EGCC 220350Z AUTO 21004KT 170V240 8000 -RA SCT005 BKN009 OVC013 13/12 Q1009 RERA REDZ TEMPO SCT009
04:20
M
13 °C 10 km+ 1.100 ft 200° 200° 5 kt METAR EGCC 220320Z AUTO 20005KT 170V230 9999 BKN011 OVC016 13/11 Q1009
03:50
M
13 °C 10 km+ 1.400 ft 190° 190° 4 kt METAR EGCC 220250Z AUTO 19004KT 140V230 9999 BKN014 OVC023 13/11 Q1009 NOSIG
03:20
M
13 °C 10 km+ 2.300 ft 180° 180° 3 kt METAR EGCC 220220Z AUTO 18003KT 150V230 9999 BKN023 OVC037 13/12 Q1009
02:50
M
13 °C 10 km+ 2.500 ft Var Var 2 kt METAR EGCC 220150Z AUTO VRB02KT 9999 FEW016 BKN025 BKN030 13/12 Q1009 RERA NOSIG
02:20
I
13 °C 2,9 km 3.100 ft 190° 190° 4 kt METAR EGCC 220120Z AUTO 19004KT 140V220 2900 RA SCT024 BKN031 BKN041 13/11 Q1009
01:50
V
14 °C 10 km+ 3.800 ft Var Var 4 kt METAR EGCC 220050Z AUTO VRB04KT 9999 BKN038 OVC045 14/11 Q1009
01:20
V
13 °C 10 km+ 3.200 ft Var Var 2 kt METAR EGCC 220020Z AUTO VRB02KT 9999 SCT020 BKN032 13/11 Q1009
00:50
M
14 °C 10 km+ 2.000 ft 180° 180° 5 kt METAR EGCC 212350Z AUTO 18005KT 070V230 9999 BKN020 BKN025 OVC029 14/10 Q1009 NOSIG
00:20
M
14 °C 10 km+ 2.700 ft 190° 190° 4 kt METAR EGCC 212320Z AUTO 19004KT 150V230 9999 OVC027 14/10 Q1009

21 czerwca 2024

Czas Kod Pogoda Temp. Widoczność Sufit Wiatr METAR/SPECI
23:50
M
14 °C 10 km+ 2.800 ft 190° 190° 5 kt METAR EGCC 212250Z AUTO 19005KT 150V230 9999 BKN028 OVC034 14/10 Q1009 NOSIG
23:20
V
14 °C 10 km+ 3.600 ft 190° 190° 4 kt METAR EGCC 212220Z AUTO 19004KT 160V220 9999 BKN036 14/09 Q1009
22:50
V
14 °C 10 km+ 4.300 ft 190° 190° 4 kt METAR EGCC 212150Z AUTO 19004KT 9999 BKN043 14/10 Q1009 TEMPO RA
22:20
V
14 °C 10 km+ - 200° 200° 4 kt METAR EGCC 212120Z AUTO 20004KT 9999 NCD 14/10 Q1009 TEMPO RA
21:50
V
14 °C 10 km+ - 190° 190° 4 kt METAR EGCC 212050Z AUTO 19004KT 150V220 9999 NCD 14/10 Q1009 TEMPO RA
21:20
V
14 °C 10 km+ - 190° 190° 4 kt METAR EGCC 212020Z AUTO 19004KT 9999 NCD 14/10 Q1009
20:50
V
15 °C 10 km+ - 200° 200° 4 kt METAR EGCC 211950Z AUTO 20004KT 170V230 9999 NCD 15/11 Q1009
20:20
V
15 °C 10 km+ - 210° 210° 5 kt METAR EGCC 211920Z AUTO 21005KT 9999 NCD 15/11 Q1009
19:50
V
16 °C 10 km+ - 210° 210° 7 kt METAR EGCC 211850Z AUTO 21007KT 190V250 9999 NCD 16/10 Q1009 NOSIG
19:20
V
17 °C 10 km+ - 230° 230° 9 kt METAR EGCC 211820Z AUTO 23009KT 9999 NCD 17/10 Q1009
18:50
V
17 °C 10 km+ - 220° 220° 9 kt METAR EGCC 211750Z AUTO 22009KT 9999 FEW041 17/10 Q1009 NOSIG
18:20
V
18 °C 10 km+ - 220° 220° 9 kt METAR EGCC 211720Z AUTO 22009KT 9999 FEW048 18/10 Q1009
17:50
V
19 °C 10 km+ 4.400 ft 220° 220° 11 kt METAR EGCC 211650Z AUTO 22011KT 9999 BKN044 19/10 Q1009 NOSIG
17:20
V
20 °C 10 km+ 4.300 ft 220° 220° 10 kt METAR EGCC 211620Z AUTO 22010KT 180V240 9999 BKN043 20/10 Q1009
16:50
V
20 °C 10 km+ 4.200 ft 230° 230° 12 kt METAR EGCC 211550Z AUTO 23012KT 9999 BKN042 20/11 Q1009
16:20
V
20 °C 10 km+ 4.100 ft 230° 230° 9 kt METAR EGCC 211520Z AUTO 23009KT 180V260 9999 BKN041 20/11 Q1009
15:50
V
21 °C 10 km+ - 230° 230° 13 kt METAR EGCC 211450Z AUTO 23013KT 9999 SCT044 21/11 Q1010 NOSIG
15:20
V
21 °C 10 km+ - 210° 210° 11 kt METAR EGCC 211420Z AUTO 21011KT 160V240 9999 SCT042 21/10 Q1010
14:50
V
20 °C 10 km+ - 230° 230° 11 kt METAR EGCC 211350Z AUTO 23011KT 9999 SCT040 20/11 Q1010 NOSIG
14:20
V
20 °C 10 km+ 3.900 ft 210° 210° 9 kt METAR EGCC 211320Z AUTO 21009KT 170V230 9999 BKN039 20/11 Q1010
13:50
V
19 °C 10 km+ 3.900 ft 200° 200° 7 kt METAR EGCC 211250Z AUTO 20007KT 160V230 9999 BKN039 19/11 Q1011 NOSIG
13:20
V
20 °C 10 km+ 3.900 ft 200° 200° 8 kt METAR EGCC 211220Z AUTO 20008KT 9999 BKN039 20/11 Q1011
12:50
V
19 °C 10 km+ - 210° 210° 8 kt METAR EGCC 211150Z 21008KT 170V240 9999 FEW034 19/11 Q1012 NOSIG
12:20
V
19 °C 10 km+ 3.400 ft 190° 190° 8 kt METAR EGCC 211120Z AUTO 19008KT 140V230 9999 BKN034 19/11 Q1012
11:50
M
19 °C 10 km+ 2.800 ft 210° 210° 9 kt METAR EGCC 211050Z AUTO 21009KT 170V230 9999 BKN028 19/10 Q1012
11:20
V
18 °C 10 km+ - 180° 180° 6 kt METAR EGCC 211020Z 18006KT 130V230 9999 SCT028 18/11 Q1013
10:50
V
16 °C 10 km+ - 210° 210° 9 kt METAR EGCC 210950Z 21009KT 160V230 9999 SCT022 16/11 Q1013
10:20
V
16 °C 10 km+ - 200° 200° 7 kt METAR EGCC 210920Z 20007KT 170V230 9999 SCT021 16/10 Q1013
09:50
V
16 °C 10 km+ - 210° 210° 8 kt METAR EGCC 210850Z AUTO 21008KT 9999 SCT022 16/10 Q1013 NOSIG
09:20
V
17 °C 10 km+ - 220° 220° 9 kt METAR EGCC 210820Z AUTO 22009KT 9999 NCD 17/10 Q1013
08:50
V
16 °C 10 km+ - 210° 210° 8 kt METAR EGCC 210750Z AUTO 21008KT 9999 NCD 16/10 Q1013 NOSIG
08:20
V
16 °C 10 km+ - 210° 210° 8 kt METAR EGCC 210720Z AUTO 21008KT 180V240 9999 NCD 16/10 Q1013
07:50
V
15 °C 10 km+ - 210° 210° 6 kt METAR EGCC 210650Z AUTO 21006KT 160V250 9999 NCD 15/10 Q1013 NOSIG
07:20
V
15 °C 10 km+ - 180° 180° 4 kt METAR EGCC 210620Z AUTO 18004KT 120V230 9999 NCD 15/10 Q1013
06:50
V
14 °C 10 km+ - 180° 180° 4 kt METAR EGCC 210550Z AUTO 18004KT 140V220 9999 NCD 14/10 Q1013
06:20
V
13 °C 10 km+ - 180° 180° 4 kt METAR EGCC 210520Z AUTO 18004KT 150V220 9999 NCD 13/10 Q1014
05:50
M
13 °C 7 km - 170° 170° 3 kt METAR EGCC 210450Z AUTO 17003KT 120V200 7000 NCD 13/10 Q1014 NOSIG
05:20
V
12 °C 10 km+ - Var Var 2 kt METAR EGCC 210420Z AUTO VRB02KT 9999 NCD 12/10 Q1014
04:50
V
12 °C 10 km+ - Var Var 2 kt METAR EGCC 210350Z AUTO VRB02KT 9999 NCD 12/10 Q1014
04:20
V
12 °C 10 km+ - Var Var 2 kt METAR EGCC 210320Z AUTO VRB02KT 9999 NCD 12/10 Q1015
03:50
V
12 °C 10 km+ - 170° 170° 3 kt METAR EGCC 210250Z AUTO 17003KT 150V210 9999 NCD 12/10 Q1015 NOSIG
03:20
V
11 °C 10 km+ - 160° 160° 3 kt METAR EGCC 210220Z AUTO 16003KT 9999 NCD 11/10 Q1015
02:50
V
11 °C 10 km+ - Var Var 2 kt METAR EGCC 210150Z AUTO VRB02KT 9999 NCD 11/10 Q1016
02:20
V
12 °C 10 km+ - 160° 160° 4 kt METAR EGCC 210120Z AUTO 16004KT 9999 NCD 12/10 Q1016 NOSIG
01:50
V
12 °C 10 km+ - 140° 140° 3 kt METAR EGCC 210050Z AUTO 14003KT 9999 NCD 12/10 Q1016 NOSIG
01:20
V
14 °C 10 km+ - 140° 140° 3 kt METAR EGCC 210020Z AUTO 14003KT 9999 NCD 14/10 Q1016
00:50
V
16 °C 10 km+ - Var Var 2 kt METAR EGCC 202350Z AUTO VRB02KT 9999 NCD 16/10 Q1016
00:20
V
16 °C 10 km+ - 270° 270° 2 kt METAR EGCC 202320Z AUTO 27002KT 9999 NCD 16/10 Q1016

20 czerwca 2024

Czas Kod Pogoda Temp. Widoczność Sufit Wiatr METAR/SPECI
23:50
V
16 °C 10 km+ - Var Var 2 kt METAR EGCC 202250Z AUTO VRB02KT 9999 NCD 16/10 Q1017
23:20
V
17 °C 10 km+ 4.900 ft 240° 240° 2 kt METAR EGCC 202220Z AUTO 24002KT 9999 BKN049 17/10 Q1017
22:50
V
17 °C 10 km+ - Var Var 1 kt METAR EGCC 202150Z AUTO VRB01KT 9999 NCD 17/10 Q1017
22:20
V
18 °C 10 km+ - Var Var 2 kt METAR EGCC 202120Z AUTO VRB02KT 9999 NCD 18/10 Q1017
21:50
V
18 °C 10 km+ - 290° 290° 2 kt METAR EGCC 202050Z AUTO 29002KT 9999 NCD 18/10 Q1017
21:20
V
18 °C 10 km+ - 310° 310° 4 kt METAR EGCC 202020Z AUTO 31004KT 9999 NCD 18/09 Q1016
20:50
V
19 °C 10 km+ - 300° 300° 6 kt METAR EGCC 201950Z AUTO 30006KT 9999 NCD 19/10 Q1016 NOSIG
20:20
V
20 °C 10 km+ - 270° 270° 5 kt METAR EGCC 201920Z AUTO 27005KT 240V310 9999 NCD 20/10 Q1017 NOSIG
19:50
V
21 °C 10 km+ - Var Var 2 kt METAR EGCC 201850Z AUTO VRB02KT 9999 NCD 21/10 Q1017 NOSIG
19:20
V
21 °C 10 km+ - 260° 260° 3 kt METAR EGCC 201820Z AUTO 26003KT 230V330 9999 NCD 21/10 Q1017
18:50
V
21 °C 10 km+ - 260° 260° 5 kt METAR EGCC 201750Z AUTO 26005KT 9999 NCD 21/09 Q1017
18:20
V
21 °C 10 km+ - 260° 260° 7 kt METAR EGCC 201720Z AUTO 26007KT 9999 NCD 21/09 Q1017
17:50
V
21 °C 10 km+ - Var Var 2 kt METAR EGCC 201650Z AUTO VRB02KT 9999 NCD 21/10 Q1017 NOSIG
17:20
V
21 °C 10 km+ - 230° 230° 4 kt METAR EGCC 201620Z AUTO 23004KT 200V270 9999 NCD 21/09 Q1018
16:50
V
22 °C 10 km+ - 280° 280° 3 kt METAR EGCC 201550Z 28003KT 210V360 CAVOK 22/09 Q1018 NOSIG
16:20
V
22 °C 10 km+ - 250° 250° 4 kt METAR EGCC 201520Z 25004KT 190V350 CAVOK 22/10 Q1018 NOSIG
15:50
V
22 °C 10 km+ - 260° 260° 6 kt METAR EGCC 201450Z AUTO 26006KT 200V290 9999 NCD 22/09 Q1018
15:20
V
21 °C 10 km+ - 230° 230° 5 kt METAR EGCC 201420Z 23005KT 9999 FEW046 21/10 Q1018
14:50
V
21 °C 10 km+ - 270° 270° 4 kt METAR EGCC 201350Z 27004KT 220V300 9999 FEW046 21/10 Q1019 NOSIG
14:20
V
20 °C 10 km+ - 220° 220° 6 kt METAR EGCC 201320Z 22006KT 180V240 9999 FEW042 20/10 Q1019 NOSIG
13:50
V
20 °C 10 km+ - 260° 260° 4 kt METAR EGCC 201250Z 26004KT 230V300 9999 FEW041 20/11 Q1019
13:20
V
20 °C 10 km+ - 280° 280° 4 kt METAR EGCC 201220Z 28004KT 200V340 9999 FEW040 20/11 Q1020
12:50
V
19 °C 10 km+ - 220° 220° 3 kt METAR EGCC 201150Z 22003KT 140V310 9999 FEW038 19/10 Q1020
12:20
V
19 °C 10 km+ - Var Var 4 kt METAR EGCC 201120Z VRB04KT CAVOK 19/10 Q1020
11:50
V
18 °C 10 km+ - 270° 270° 4 kt METAR EGCC 201050Z 27004KT 230V350 CAVOK 18/09 Q1021 NOSIG
11:20
V
18 °C 10 km+ - 260° 260° 4 kt METAR EGCC 201020Z 26004KT 210V300 CAVOK 18/10 Q1021
10:50
V
18 °C 10 km+ - Var Var 3 kt METAR EGCC 200950Z VRB03KT CAVOK 18/11 Q1021 NOSIG
10:20
V
17 °C 10 km+ - Var Var 1 kt METAR EGCC 200920Z AUTO VRB01KT 9999 NCD 17/11 Q1021
09:50
V
17 °C 10 km+ - 280° 280° 3 kt METAR EGCC 200850Z AUTO 28003KT 220V330 9999 NCD 17/11 Q1021 NOSIG
09:20
V
16 °C 10 km+ - 290° 290° 3 kt METAR EGCC 200820Z 29003KT 240V330 CAVOK 16/11 Q1021
08:50
V
15 °C 10 km+ - 200° 200° 3 kt METAR EGCC 200750Z AUTO 20003KT 170V250 9999 NCD 15/11 Q1021 NOSIG
08:20
V
15 °C 10 km+ - 220° 220° 4 kt METAR EGCC 200720Z AUTO 22004KT 180V240 9999 NCD 15/11 Q1021
07:50
V
14 °C 10 km+ - 200° 200° 3 kt METAR EGCC 200650Z AUTO 20003KT 160V230 9999 NCD 14/10 Q1021
07:20
V
14 °C 10 km+ - 180° 180° 3 kt METAR EGCC 200620Z AUTO 18003KT 130V220 9999 NCD 14/10 Q1022
06:50
V
13 °C 10 km+ - Var Var 2 kt METAR EGCC 200550Z VRB02KT CAVOK 13/10 Q1022 NOSIG
Zgłoś zmianę